Time;durP1;ratioP1;P1;durP2;ratioP2;P2;SDS_P1;SDS_P2;PMS_P1;PMS_P2;Temp;Humidity;BMP_temperature;BMP_pressure;BME280_temperature;BME280_humidity;BME280_pressure;Samples;Min_cycle;Max_cycle;Signal;HPM_P1;HPM_P2
2021/09/03 00:00:41;;;;;;;23.40;13.53;;;15.20;99.90;;;;;;5014774;28;20444;-55
2021/09/03 00:03:08;;;;;;;24.43;12.37;;;15.20;99.90;;;;;;5014364;28;20519;-53
2021/09/03 00:05:35;;;;;;;16.57;12.07;;;15.20;99.90;;;;;;5014722;28;20511;-54
2021/09/03 00:08:04;;;;;;;17.63;11.07;;;15.20;99.90;;;;;;5014132;28;20449;-54
2021/09/03 00:10:31;;;;;;;19.10;13.30;;;15.20;99.90;;;;;;5014550;28;20526;-55
2021/09/03 00:12:57;;;;;;;18.03;11.53;;;15.20;99.90;;;;;;5014588;28;20449;-52
2021/09/03 00:15:24;;;;;;;16.70;11.07;;;15.20;99.90;;;;;;5014356;28;20440;-52
2021/09/03 00:17:51;;;;;;;18.30;12.13;;;15.20;99.90;;;;;;5014479;28;20465;-53
2021/09/03 00:20:17;;;;;;;18.20;11.97;;;15.20;99.90;;;;;;5014247;28;20437;-55
2021/09/03 00:22:45;;;;;;;19.40;12.30;;;15.20;99.90;;;;;;5014136;28;20897;-54
2021/09/03 00:25:13;;;;;;;16.63;10.00;;;15.20;99.90;;;;;;5014356;28;20457;-54
2021/09/03 00:27:41;;;;;;;16.47;10.70;;;15.20;99.90;;;;;;5014210;28;20452;-51
2021/09/03 00:30:08;;;;;;;16.70;11.83;;;15.20;99.90;;;;;;5014254;28;20542;-53
2021/09/03 00:32:35;;;;;;;22.50;11.77;;;15.20;99.90;;;;;;5014081;28;20449;-53
2021/09/03 00:35:02;;;;;;;16.47;12.13;;;15.20;99.90;;;;;;5014267;28;20826;-54
2021/09/03 00:37:29;;;;;;;15.33;10.73;;;15.10;99.90;;;;;;5013951;28;20453;-54
2021/09/03 00:39:56;;;;;;;15.20;11.40;;;15.10;99.90;;;;;;5014151;28;20531;-52
2021/09/03 00:42:24;;;;;;;17.70;12.07;;;15.10;99.90;;;;;;5013674;28;20481;-53
2021/09/03 00:44:51;;;;;;;20.90;12.20;;;15.10;99.90;;;;;;5013965;28;20522;-47
2021/09/03 00:47:17;;;;;;;22.70;12.47;;;15.10;99.90;;;;;;5013860;28;20449;-54
2021/09/03 00:49:44;;;;;;;19.00;11.73;;;15.00;99.90;;;;;;5013700;28;20984;-50
2021/09/03 00:52:12;;;;;;;18.63;11.70;;;15.00;99.90;;;;;;5014042;28;20452;-48
2021/09/03 00:54:39;;;;;;;16.73;12.80;;;15.00;99.90;;;;;;5014070;28;20445;-48
2021/09/03 00:57:06;;;;;;;16.93;10.10;;;15.10;99.90;;;;;;5013906;28;20515;-49
2021/09/03 00:59:34;;;;;;;20.43;11.77;;;15.00;99.90;;;;;;5014051;28;20465;-50
2021/09/03 01:02:01;;;;;;;18.40;11.77;;;15.00;99.90;;;;;;5013698;28;20464;-48
2021/09/03 01:04:28;;;;;;;18.83;12.37;;;14.90;99.90;;;;;;5014020;28;21056;-49
2021/09/03 01:06:55;;;;;;;23.20;12.30;;;14.90;99.90;;;;;;5013955;28;20441;-49
2021/09/03 01:09:22;;;;;;;17.60;12.17;;;14.90;99.90;;;;;;5013809;28;20937;-50
2021/09/03 01:11:48;;;;;;;21.50;11.97;;;14.90;99.90;;;;;;5013779;28;20922;-52
2021/09/03 01:14:16;;;;;;;16.47;11.53;;;14.90;99.90;;;;;;5013748;28;20470;-53
2021/09/03 01:16:44;;;;;;;19.80;11.13;;;14.90;99.90;;;;;;5013869;28;20461;-49
2021/09/03 01:19:11;;;;;;;17.50;12.60;;;14.90;99.90;;;;;;5013637;28;20487;-53
2021/09/03 01:21:37;;;;;;;18.80;11.90;;;14.90;99.90;;;;;;5017580;28;20441;-53
2021/09/03 01:24:06;;;;;;;20.73;12.53;;;14.80;99.90;;;;;;5017655;28;20448;-51
2021/09/03 01:26:33;;;;;;;23.00;11.40;;;14.80;99.90;;;;;;5017260;28;20465;-53
2021/09/03 01:28:59;;;;;;;14.20;11.07;;;14.80;99.90;;;;;;5017547;28;20518;-53
2021/09/03 01:31:26;;;;;;;16.80;11.20;;;14.80;99.90;;;;;;5017168;28;20480;-53
2021/09/03 01:33:55;;;;;;;16.80;10.60;;;14.80;99.90;;;;;;5017301;28;20468;-52
2021/09/03 01:36:26;;;;;;;18.00;12.37;;;14.80;99.90;;;;;;5017438;28;20518;-56
2021/09/03 01:38:53;;;;;;;18.50;11.20;;;14.80;99.90;;;;;;5017603;28;20515;-50
2021/09/03 01:41:21;;;;;;;19.83;10.37;;;14.80;99.90;;;;;;5017001;28;20863;-52
2021/09/03 01:43:48;;;;;;;23.60;12.53;;;14.80;99.90;;;;;;5016898;28;20508;-52
2021/09/03 01:46:15;;;;;;;28.73;11.93;;;14.80;99.90;;;;;;5017055;28;20453;-49
2021/09/03 01:48:42;;;;;;;19.00;12.13;;;14.80;99.90;;;;;;5016893;28;20448;-49
2021/09/03 01:51:08;;;;;;;20.10;11.90;;;14.70;99.90;;;;;;5016861;28;20484;-50
2021/09/03 01:53:35;;;;;;;16.73;11.57;;;14.70;99.90;;;;;;5017016;28;20465;-53
2021/09/03 01:56:01;;;;;;;14.27;10.23;;;14.70;99.90;;;;;;5016730;28;20445;-53
2021/09/03 01:58:29;;;;;;;15.03;9.43;;;14.60;99.90;;;;;;5016636;28;20445;-54
2021/09/03 02:00:56;;;;;;;19.87;11.53;;;14.60;99.90;;;;;;5016946;28;20515;-54
2021/09/03 02:03:23;;;;;;;16.10;10.17;;;14.70;99.90;;;;;;5016648;28;20902;-54
2021/09/03 02:05:49;;;;;;;14.80;10.40;;;14.60;99.90;;;;;;5016826;28;20511;-53
2021/09/03 02:08:16;;;;;;;17.57;9.93;;;14.60;99.90;;;;;;5016466;28;20449;-55
2021/09/03 02:10:43;;;;;;;18.57;10.50;;;14.60;99.90;;;;;;5016422;28;20547;-53
2021/09/03 02:13:10;;;;;;;20.80;12.20;;;14.70;99.90;;;;;;5016335;28;20478;-55
2021/09/03 02:15:37;;;;;;;23.07;10.77;;;14.60;99.90;;;;;;5016637;28;20828;-52
2021/09/03 02:18:04;;;;;;;15.40;10.60;;;14.60;99.90;;;;;;5016324;28;20515;-60
2021/09/03 02:20:31;;;;;;;18.70;11.80;;;14.60;99.90;;;;;;5016398;28;20468;-52
2021/09/03 02:22:57;;;;;;;17.43;10.27;;;14.60;99.90;;;;;;5016533;28;20445;-53
2021/09/03 02:25:24;;;;;;;13.53;9.50;;;14.50;99.90;;;;;;5016260;28;20809;-56
2021/09/03 02:27:51;;;;;;;17.93;11.87;;;14.50;99.90;;;;;;5016366;28;20445;-55
2021/09/03 02:30:17;;;;;;;19.10;10.77;;;14.50;99.90;;;;;;5016020;28;20535;-53
2021/09/03 02:32:45;;;;;;;19.83;10.30;;;14.50;99.90;;;;;;5016177;28;20516;-50
2021/09/03 02:35:12;;;;;;;18.03;9.77;;;14.50;99.90;;;;;;5016267;28;20452;-48
2021/09/03 02:37:38;;;;;;;18.60;11.53;;;14.50;99.90;;;;;;5016037;28;20873;-51
2021/09/03 02:40:07;;;;;;;16.73;9.90;;;14.50;99.90;;;;;;5015599;28;20461;-49
2021/09/03 02:42:33;;;;;;;14.20;9.80;;;14.40;99.90;;;;;;5016100;28;20810;-48
2021/09/03 02:45:00;;;;;;;18.27;10.70;;;14.40;99.90;;;;;;5015751;28;20917;-50
2021/09/03 02:47:27;;;;;;;15.40;10.60;;;14.40;99.90;;;;;;5016082;28;20457;-48
2021/09/03 02:49:55;;;;;;;15.80;9.80;;;14.40;99.90;;;;;;5015831;28;20449;-50
2021/09/03 02:52:21;;;;;;;18.33;9.80;;;14.40;99.90;;;;;;5016017;28;20902;-50
2021/09/03 02:54:48;;;;;;;17.97;10.50;;;14.40;99.90;;;;;;5015637;28;20445;-49
2021/09/03 02:57:15;;;;;;;17.70;9.40;;;14.40;99.90;;;;;;5015756;28;20466;-52
2021/09/03 02:59:41;;;;;;;16.20;10.10;;;14.30;99.90;;;;;;5015553;28;20449;-55
2021/09/03 03:02:08;;;;;;;14.50;10.63;;;14.40;99.90;;;;;;5015556;28;20437;-52
2021/09/03 03:04:35;;;;;;;17.23;10.50;;;14.30;99.90;;;;;;5015692;28;20440;-53
2021/09/03 03:07:03;;;;;;;18.00;10.27;;;14.20;99.90;;;;;;5015344;28;20453;-51
2021/09/03 03:09:32;;;;;;;18.97;10.30;;;14.20;99.90;;;;;;5015537;28;20445;-50
2021/09/03 03:11:59;;;;;;;17.27;11.37;;;14.20;99.90;;;;;;5015588;28;20473;-53
2021/09/03 03:14:32;;;;;;;16.07;10.17;;;14.20;99.90;;;;;;5015369;28;20449;-54
2021/09/03 03:16:59;;;;;;;22.23;11.13;;;14.20;99.90;;;;;;5015553;28;20964;-51
2021/09/03 03:19:27;;;;;;;17.53;10.17;;;14.20;99.90;;;;;;5015554;28;20445;-52
2021/09/03 03:21:54;;;;;;;18.60;10.90;;;14.20;99.90;;;;;;5015020;28;20906;-52
2021/09/03 03:24:23;;;;;;;19.70;10.63;;;14.10;99.90;;;;;;5015309;28;20503;-53
2021/09/03 03:26:50;;;;;;;15.83;10.20;;;14.10;99.90;;;;;;5015018;28;21171;-55
2021/09/03 03:29:17;;;;;;;15.87;11.10;;;14.10;99.90;;;;;;5014931;28;20531;-55
2021/09/03 03:31:44;;;;;;;16.70;11.87;;;14.10;99.90;;;;;;5014803;28;20531;-52
2021/09/03 03:34:11;;;;;;;18.13;12.50;;;14.10;99.90;;;;;;5014816;28;20488;-67
2021/09/03 03:36:38;;;;;;;17.10;11.70;;;14.10;99.90;;;;;;5015125;28;20452;-54
2021/09/03 03:39:06;;;;;;;14.00;10.33;;;14.10;99.90;;;;;;5014698;28;20465;-50
2021/09/03 03:41:34;;;;;;;17.80;10.40;;;14.00;99.90;;;;;;5014594;28;20477;-54
2021/09/03 03:44:01;;;;;;;15.50;10.80;;;14.00;99.90;;;;;;5014301;28;20971;-53
2021/09/03 03:46:28;;;;;;;16.93;9.83;;;14.00;99.90;;;;;;5014906;28;20453;-48
2021/09/03 03:48:54;;;;;;;19.30;10.70;;;13.90;99.90;;;;;;5014635;28;20584;-48
2021/09/03 03:51:21;;;;;;;19.00;12.30;;;13.90;99.90;;;;;;5014740;28;20543;-49
2021/09/03 03:53:48;;;;;;;17.47;10.50;;;13.90;99.90;;;;;;5014889;28;20774;-53
2021/09/03 03:56:15;;;;;;;17.23;10.50;;;13.90;99.90;;;;;;5014640;28;20989;-55
2021/09/03 03:58:43;;;;;;;18.57;11.20;;;13.90;99.90;;;;;;5014875;28;20445;-50
2021/09/03 04:01:10;;;;;;;21.83;12.00;;;13.90;99.90;;;;;;5014527;28;20449;-49
2021/09/03 04:03:37;;;;;;;17.33;10.00;;;13.90;99.90;;;;;;5014576;28;20477;-52
2021/09/03 04:06:03;;;;;;;17.77;11.80;;;13.90;99.90;;;;;;5015165;28;20445;-53
2021/09/03 04:08:30;;;;;;;16.40;10.83;;;13.80;99.90;;;;;;5014797;28;20453;-53
2021/09/03 04:10:57;;;;;;;14.80;9.50;;;13.90;99.90;;;;;;5014860;28;20865;-58
2021/09/03 04:13:24;;;;;;;19.73;10.80;;;13.80;99.90;;;;;;5014513;28;20457;-54
2021/09/03 04:15:52;;;;;;;22.90;13.40;;;13.80;99.90;;;;;;5014182;28;21092;-51
2021/09/03 04:18:19;;;;;;;21.73;10.00;;;13.80;99.90;;;;;;5014556;28;20453;-48
2021/09/03 04:20:46;;;;;;;14.17;9.47;;;13.80;99.90;;;;;;5014428;28;20456;-51
2021/09/03 04:23:13;;;;;;;19.40;11.97;;;13.80;99.90;;;;;;5014148;28;20449;-51
2021/09/03 04:25:39;;;;;;;16.50;12.67;;;13.70;99.90;;;;;;5014189;28;20933;-50
2021/09/03 04:28:06;;;;;;;16.37;11.37;;;13.80;99.90;;;;;;5014223;28;20461;-50
2021/09/03 04:30:33;;;;;;;14.30;9.93;;;13.80;99.90;;;;;;5014262;28;20510;-54
2021/09/03 04:33:01;;;;;;;15.63;11.43;;;13.70;99.90;;;;;;5014529;28;20452;-51
2021/09/03 04:35:28;;;;;;;15.60;10.77;;;13.70;99.90;;;;;;5014696;28;20441;-54
2021/09/03 04:37:55;;;;;;;20.03;11.87;;;13.80;99.90;;;;;;5014284;28;20452;-51
2021/09/03 04:40:22;;;;;;;21.40;10.63;;;13.80;99.90;;;;;;5013924;28;20480;-48
2021/09/03 04:42:49;;;;;;;20.13;12.03;;;13.80;99.90;;;;;;5014191;28;20422;-49
2021/09/03 04:45:17;;;;;;;15.90;10.60;;;13.80;99.90;;;;;;5014543;28;20491;-52
2021/09/03 04:47:44;;;;;;;15.70;10.83;;;13.70;99.90;;;;;;5014529;28;20444;-53
2021/09/03 04:50:13;;;;;;;16.57;11.57;;;13.80;99.90;;;;;;5014443;28;20449;-51
2021/09/03 04:52:40;;;;;;;20.20;12.03;;;13.80;99.90;;;;;;5014347;28;20491;-48
2021/09/03 04:55:07;;;;;;;20.00;11.10;;;13.80;99.90;;;;;;5015760;28;20457;-51
2021/09/03 04:57:39;;;;;;;17.20;10.20;;;13.80;99.90;;;;;;5018387;28;20441;-48
2021/09/03 05:00:07;;;;;;;19.27;11.80;;;13.90;99.90;;;;;;5018570;28;20925;-50
2021/09/03 05:02:34;;;;;;;18.73;10.40;;;13.90;99.90;;;;;;5018274;28;20526;-53
2021/09/03 05:05:01;;;;;;;16.90;11.27;;;13.90;99.90;;;;;;5018176;28;20460;-51
2021/09/03 05:07:29;;;;;;;18.70;13.00;;;13.90;99.90;;;;;;5017894;28;20918;-50
2021/09/03 05:09:55;;;;;;;19.07;13.60;;;13.90;99.90;;;;;;5018166;28;20510;-54
2021/09/03 05:12:22;;;;;;;23.23;13.57;;;13.90;99.90;;;;;;5017725;28;20480;-53
2021/09/03 05:14:49;;;;;;;19.70;12.03;;;13.90;99.90;;;;;;5018092;28;20445;-51
2021/09/03 05:17:15;;;;;;;17.30;12.17;;;13.90;99.90;;;;;;5018188;28;20510;-51
2021/09/03 05:19:42;;;;;;;19.03;12.60;;;13.90;99.90;;;;;;5017838;28;20457;-52
2021/09/03 05:22:09;;;;;;;16.77;11.43;;;13.90;99.90;;;;;;5017744;28;20503;-53
2021/09/03 05:24:37;;;;;;;20.13;13.00;;;13.90;99.90;;;;;;5017624;28;20448;-53
2021/09/03 05:27:04;;;;;;;15.40;10.80;;;13.90;99.90;;;;;;5017560;28;20985;-51
2021/09/03 05:29:31;;;;;;;21.70;13.13;;;14.00;99.90;;;;;;5017582;28;20475;-55
2021/09/03 05:31:58;;;;;;;17.30;11.27;;;14.00;99.90;;;;;;5017631;28;20482;-50
2021/09/03 05:34:24;;;;;;;18.40;11.93;;;14.00;99.90;;;;;;5017633;28;20445;-53
2021/09/03 05:36:51;;;;;;;19.37;12.57;;;14.00;99.90;;;;;;5017496;28;20849;-53
2021/09/03 05:39:18;;;;;;;16.70;12.10;;;14.10;99.90;;;;;;5017584;28;20456;-50
2021/09/03 05:41:46;;;;;;;19.73;13.17;;;14.10;99.90;;;;;;5017321;28;20476;-53
2021/09/03 05:44:12;;;;;;;19.03;12.17;;;14.10;99.90;;;;;;5017291;28;20456;-51
2021/09/03 05:46:39;;;;;;;18.80;11.80;;;14.20;99.90;;;;;;5017189;28;20456;-50
2021/09/03 05:49:05;;;;;;;15.27;10.43;;;14.20;99.90;;;;;;5017250;28;20445;-54
2021/09/03 05:51:32;;;;;;;16.70;11.60;;;14.20;99.90;;;;;;5017464;28;20476;-53
2021/09/03 05:54:01;;;;;;;21.13;12.20;;;14.40;99.90;;;;;;5017228;28;20477;-55
2021/09/03 05:56:27;;;;;;;17.83;11.63;;;14.40;99.90;;;;;;5017244;28;20460;-53
2021/09/03 05:58:56;;;;;;;15.90;10.27;;;14.50;99.90;;;;;;5017424;28;20890;-53
2021/09/03 06:01:22;;;;;;;17.63;10.90;;;14.60;99.90;;;;;;5017142;28;20452;-53
2021/09/03 06:03:49;;;;;;;20.10;11.00;;;14.60;99.90;;;;;;5017288;28;20453;-55
2021/09/03 06:06:18;;;;;;;16.07;11.33;;;14.70;99.90;;;;;;5016514;28;20445;-59
2021/09/03 06:08:45;;;;;;;19.27;12.17;;;14.70;99.90;;;;;;5017191;28;20464;-54
2021/09/03 06:11:14;;;;;;;16.60;11.70;;;14.80;99.90;;;;;;5016686;28;20461;-52
2021/09/03 06:13:41;;;;;;;19.80;13.17;;;14.80;99.90;;;;;;5017094;28;20448;-51
2021/09/03 06:16:09;;;;;;;16.10;12.47;;;14.90;99.90;;;;;;5021162;28;20449;-53
2021/09/03 06:18:36;;;;;;;19.00;13.00;;;14.90;99.90;;;;;;5025519;28;20947;-53
2021/09/03 06:21:02;;;;;;;19.17;12.17;;;14.90;99.90;;;;;;5035441;28;20531;-53
2021/09/03 06:23:29;;;;;;;20.30;13.33;;;15.00;99.90;;;;;;5028554;28;20518;-52
2021/09/03 06:25:56;;;;;;;16.80;12.80;;;15.00;99.90;;;;;;5030071;28;20468;-53
2021/09/03 06:28:23;;;;;;;17.07;13.13;;;15.10;99.90;;;;;;5026779;28;20444;-56
2021/09/03 06:30:49;;;;;;;21.43;13.40;;;15.10;99.90;;;;;;5030859;28;20444;-54
2021/09/03 06:33:17;;;;;;;20.93;12.20;;;15.20;99.90;;;;;;5039627;28;20469;-51
2021/09/03 06:35:44;;;;;;;15.77;13.17;;;15.30;99.90;;;;;;5033831;28;20530;-54
2021/09/03 06:38:11;;;;;;;18.53;13.43;;;15.40;99.90;;;;;;5027792;28;20464;-53
2021/09/03 06:40:37;;;;;;;17.07;12.37;;;15.50;99.90;;;;;;5027984;28;20545;-55
2021/09/03 06:43:04;;;;;;;21.37;13.43;;;15.50;99.90;;;;;;5036366;28;20441;-53
2021/09/03 06:45:31;;;;;;;20.07;14.10;;;15.60;99.90;;;;;;5036371;28;20447;-53
2021/09/03 06:48:00;;;;;;;22.63;15.00;;;15.60;99.90;;;;;;5038836;28;20456;-52
2021/09/03 06:50:28;;;;;;;20.00;12.87;;;15.50;99.90;;;;;;5040875;28;20452;-55
2021/09/03 06:52:55;;;;;;;16.10;12.90;;;15.60;99.90;;;;;;5037324;28;20488;-51
2021/09/03 06:55:21;;;;;;;25.67;14.17;;;15.60;99.90;;;;;;5037515;28;20448;-51
2021/09/03 06:57:48;;;;;;;21.30;12.93;;;15.60;99.90;;;;;;5037425;28;20524;-54
2021/09/03 07:00:16;;;;;;;20.17;14.80;;;15.70;99.90;;;;;;5036610;28;20551;-52
2021/09/03 07:02:43;;;;;;;16.27;11.80;;;15.70;99.90;;;;;;5034668;28;20449;-47
2021/09/03 07:05:12;;;;;;;21.80;14.90;;;15.90;99.90;;;;;;5040080;28;20452;-48
2021/09/03 07:07:40;;;;;;;21.00;13.10;;;16.20;99.90;;;;;;5042877;28;20916;-45
2021/09/03 07:10:08;;;;;;;18.73;11.13;;;16.50;99.90;;;;;;5034694;28;20522;-47
2021/09/03 07:12:35;;;;;;;22.10;14.20;;;16.60;99.90;;;;;;5034102;28;20478;-46
2021/09/03 07:15:02;;;;;;;19.83;13.00;;;16.70;99.90;;;;;;5047958;28;20474;-46
2021/09/03 07:17:28;;;;;;;16.53;11.50;;;16.80;99.90;;;;;;5047138;28;20456;-50
2021/09/03 07:19:55;;;;;;;17.10;12.07;;;16.80;99.90;;;;;;5031620;28;20445;-48
2021/09/03 07:22:22;;;;;;;16.90;11.93;;;17.00;99.90;;;;;;5029967;28;20465;-46
2021/09/03 07:24:50;;;;;;;24.73;13.57;;;17.20;99.90;;;;;;5029519;28;20574;-50
2021/09/03 07:27:17;;;;;;;21.53;15.30;;;17.30;99.90;;;;;;5036192;28;20509;-47
2021/09/03 07:29:45;;;;;;;19.27;13.37;;;17.30;99.90;;;;;;5057106;28;20429;-47
2021/09/03 07:32:13;;;;;;;17.40;11.93;;;17.40;99.90;;;;;;5052973;28;20464;-47
2021/09/03 07:34:40;;;;;;;17.50;11.47;;;17.50;99.90;;;;;;5048080;28;20436;-48
2021/09/03 07:37:07;;;;;;;18.70;11.03;;;17.50;99.90;;;;;;5056909;28;20447;-46
2021/09/03 07:39:34;;;;;;;19.80;11.53;;;17.50;99.90;;;;;;5056819;28;20456;-49
2021/09/03 07:42:02;;;;;;;15.03;9.83;;;17.60;99.90;;;;;;5057087;28;20547;-49
2021/09/03 07:44:29;;;;;;;12.77;10.57;;;17.60;99.90;;;;;;5056325;28;20448;-48
2021/09/03 07:46:56;;;;;;;13.50;10.53;;;17.70;99.90;;;;;;5055542;28;20518;-48
2021/09/03 07:49:23;;;;;;;19.53;12.50;;;17.90;99.90;;;;;;5055776;28;20478;-50
2021/09/03 07:51:50;;;;;;;17.57;10.50;;;18.00;99.90;;;;;;5056010;28;20480;-49
2021/09/03 07:54:16;;;;;;;11.97;10.17;;;18.20;99.90;;;;;;5055594;28;20487;-52
2021/09/03 07:56:44;;;;;;;22.73;10.33;;;18.30;99.90;;;;;;5055239;28;20435;-49
2021/09/03 07:59:13;;;;;;;14.07;10.07;;;18.50;99.90;;;;;;5054835;28;20448;-51
2021/09/03 08:01:39;;;;;;;18.60;10.17;;;18.60;99.90;;;;;;5054871;28;20516;-52
2021/09/03 08:04:06;;;;;;;14.73;9.23;;;18.70;99.90;;;;;;5054853;28;20921;-52
2021/09/03 08:06:33;;;;;;;10.13;8.37;;;18.90;99.90;;;;;;5054129;28;20440;-51
2021/09/03 08:09:01;;;;;;;15.73;7.80;;;19.60;99.90;;;;;;5053322;28;20512;-49
2021/09/03 08:11:28;;;;;;;13.03;8.17;;;20.90;99.90;;;;;;5050681;28;20451;-52
2021/09/03 08:13:55;;;;;;;10.30;8.17;;;22.50;99.90;;;;;;5049074;28;20484;-48
2021/09/03 08:16:23;;;;;;;9.90;8.00;;;24.20;99.90;;;;;;5030871;28;20447;-49
2021/09/03 08:18:50;;;;;;;13.93;9.30;;;25.50;99.90;;;;;;5047019;28;20464;-52
2021/09/03 08:21:17;;;;;;;12.90;8.00;;;26.40;99.90;;;;;;5045715;28;20468;-48
2021/09/03 08:23:44;;;;;;;13.30;9.93;;;26.70;99.90;;;;;;5046278;28;20900;-47
2021/09/03 08:26:11;;;;;;;15.93;10.40;;;27.00;99.90;;;;;;5045644;28;20791;-52
2021/09/03 08:28:38;;;;;;;14.23;10.10;;;27.30;99.90;;;;;;5046801;28;20486;-54
2021/09/03 08:31:05;;;;;;;12.80;9.90;;;27.80;99.70;;;;;;5047187;28;20444;-49
2021/09/03 08:33:33;;;;;;;15.97;10.00;;;28.30;97.10;;;;;;5046103;28;20471;-51
2021/09/03 08:36:00;;;;;;;13.70;8.97;;;28.20;94.70;;;;;;5045855;28;20522;-51
2021/09/03 08:38:27;;;;;;;15.93;9.43;;;28.00;94.50;;;;;;5046125;28;20452;-49
2021/09/03 08:40:57;;;;;;;11.30;8.83;;;27.90;94.20;;;;;;5045433;28;20479;-52
2021/09/03 08:43:24;;;;;;;14.63;9.93;;;27.50;93.60;;;;;;5046039;28;20538;-49
2021/09/03 08:45:51;;;;;;;14.03;9.70;;;27.30;94.50;;;;;;5046311;28;20451;-50
2021/09/03 08:48:20;;;;;;;12.23;8.73;;;27.20;95.30;;;;;;5046398;28;20462;-52
2021/09/03 08:50:49;;;;;;;11.80;8.33;;;27.40;94.10;;;;;;5040437;28;20470;-53
2021/09/03 08:53:18;;;;;;;12.40;8.30;;;27.10;94.90;;;;;;5034088;28;20488;-49
2021/09/03 08:55:46;;;;;;;11.43;9.33;;;27.50;94.60;;;;;;5034219;28;20983;-53
2021/09/03 08:58:13;;;;;;;12.43;9.33;;;28.20;93.30;;;;;;5034667;28;20841;-53
2021/09/03 09:00:42;;;;;;;10.60;7.70;;;29.00;91.80;;;;;;5031367;28;20457;-54
2021/09/03 09:03:13;;;;;;;14.73;8.77;;;29.70;89.00;;;;;;5042907;28;20468;-52
2021/09/03 09:05:56;;;;;;;10.97;8.50;;;29.70;85.80;;;;;;5023065;28;20467;-49
2021/09/03 09:08:24;;;;;;;11.97;9.60;;;29.10;85.70;;;;;;5024686;28;20449;-53
2021/09/03 09:10:57;;;;;;;16.80;8.83;;;29.00;86.20;;;;;;5024391;28;20452;-51
2021/09/03 09:13:26;;;;;;;12.83;9.40;;;29.00;84.90;;;;;;5023860;28;20527;-51
2021/09/03 09:16:02;;;;;;;12.13;8.87;;;29.10;86.30;;;;;;5025174;28;20543;-54
2021/09/03 09:18:40;;;;;;;9.87;8.27;;;29.20;84.60;;;;;;5025599;28;20479;-50
2021/09/03 09:21:09;;;;;;;10.50;7.07;;;29.40;84.90;;;;;;5024327;28;20444;-50
2021/09/03 09:23:41;;;;;;;12.80;9.60;;;29.80;82.20;;;;;;5023820;28;20929;-50
2021/09/03 09:26:08;;;;;;;13.50;8.57;;;29.90;80.10;;;;;;5024510;28;20948;-48
2021/09/03 09:28:35;;;;;;;11.70;8.60;;;29.70;80.70;;;;;;5024287;28;20480;-51
2021/09/03 09:31:02;;;;;;;9.83;7.53;;;30.00;79.30;;;;;;5024092;28;20475;-52
2021/09/03 09:33:29;;;;;;;10.53;7.70;;;30.00;78.00;;;;;;5023367;28;20476;-51
2021/09/03 09:35:58;;;;;;;13.40;8.70;;;29.40;79.10;;;;;;5024433;28;20447;-49
2021/09/03 09:38:30;;;;;;;12.97;7.70;;;29.10;80.00;;;;;;5024594;28;20437;-49
2021/09/03 09:40:58;;;;;;;8.67;7.20;;;28.90;81.20;;;;;;5026740;28;20809;-49
2021/09/03 09:43:27;;;;;;;10.43;7.20;;;29.20;81.20;;;;;;5029084;28;20441;-49
2021/09/03 09:46:18;;;;;;;10.27;7.03;;;29.40;80.30;;;;;;5029122;28;20445;-50
2021/09/03 09:48:57;;;;;;;10.03;7.57;;;29.70;81.10;;;;;;5029357;28;20479;-49
2021/09/03 09:51:26;;;;;;;14.70;8.73;;;30.10;79.10;;;;;;5028164;28;20425;-53
2021/09/03 09:53:55;;;;;;;12.50;7.70;;;30.30;79.00;;;;;;5027550;28;20484;-51
2021/09/03 09:56:22;;;;;;;10.10;8.23;;;30.20;76.60;;;;;;5026855;28;20453;-51
2021/09/03 09:58:51;;;;;;;12.10;7.50;;;30.10;76.50;;;;;;5027363;28;20451;-49
2021/09/03 10:01:19;;;;;;;11.70;7.83;;;29.50;77.90;;;;;;5028043;28;20445;-52
2021/09/03 10:03:47;;;;;;;8.27;6.90;;;29.30;78.50;;;;;;5027865;28;20465;-51
2021/09/03 10:06:16;;;;;;;9.37;7.30;;;29.10;78.60;;;;;;5028037;28;20445;-50
2021/09/03 10:08:45;;;;;;;9.80;8.20;;;29.10;78.90;;;;;;5029180;28;20449;-49
2021/09/03 10:11:14;;;;;;;8.80;7.33;;;29.00;79.40;;;;;;5028769;28;20445;-47
2021/09/03 10:13:42;;;;;;;13.97;7.87;;;29.10;79.40;;;;;;5028524;28;20542;-45
2021/09/03 10:16:09;;;;;;;10.30;6.53;;;29.20;78.50;;;;;;5027706;28;20442;-45
2021/09/03 10:18:37;;;;;;;9.67;6.90;;;29.30;78.00;;;;;;5027615;28;20452;-45
2021/09/03 10:21:05;;;;;;;12.20;8.20;;;29.40;78.60;;;;;;5028050;28;20449;-47
2021/09/03 10:23:52;;;;;;;17.50;7.93;;;29.70;78.50;;;;;;5027470;28;20464;-45
2021/09/03 10:26:23;;;;;;;8.30;7.50;;;30.00;77.80;;;;;;5026998;28;20459;-50
2021/09/03 10:28:50;;;;;;;9.00;6.80;;;30.10;75.70;;;;;;5026710;28;20472;-50
2021/09/03 10:31:20;;;;;;;10.13;5.97;;;30.00;75.30;;;;;;5026365;28;20480;-51
2021/09/03 10:33:48;;;;;;;8.20;6.50;;;29.80;75.40;;;;;;5025560;28;20465;-49
2021/09/03 10:36:34;;;;;;;10.77;6.97;;;29.50;78.00;;;;;;5026898;28;20471;-51
2021/09/03 10:39:23;;;;;;;11.30;6.93;;;29.40;78.20;;;;;;5027074;28;20476;-51
2021/09/03 10:41:52;;;;;;;8.30;6.63;;;29.30;77.60;;;;;;5026737;28;20469;-54
2021/09/03 10:44:19;;;;;;;9.50;7.80;;;29.00;78.00;;;;;;5026265;28;20521;-52
2021/09/03 10:46:47;;;;;;;10.33;6.97;;;28.70;78.20;;;;;;5026752;28;20437;-48
2021/09/03 10:49:16;;;;;;;8.23;6.63;;;28.20;79.80;;;;;;5027535;28;20445;-49
2021/09/03 10:51:50;;;;;;;10.00;6.60;;;27.80;81.30;;;;;;5027725;28;20449;-50
2021/09/03 10:54:18;;;;;;;8.40;6.53;;;27.60;82.00;;;;;;5026645;28;20500;-50
2021/09/03 10:56:57;;;;;;;9.07;6.03;;;27.40;83.00;;;;;;5027609;28;20455;-51
2021/09/03 10:59:24;;;;;;;10.73;7.17;;;27.20;83.90;;;;;;5027584;28;20460;-49
2021/09/03 11:01:53;;;;;;;11.17;7.20;;;27.10;84.40;;;;;;5026341;28;20461;-50
2021/09/03 11:04:23;;;;;;;9.20;7.00;;;26.80;85.20;;;;;;5026789;28;20445;-49
2021/09/03 11:06:56;;;;;;;11.80;7.80;;;26.60;85.60;;;;;;5028194;28;20429;-48
2021/09/03 11:09:25;;;;;;;7.30;6.23;;;26.60;86.80;;;;;;5028150;28;20493;-52
2021/09/03 11:11:56;;;;;;;8.60;6.77;;;26.60;87.20;;;;;;5026904;28;20468;-52
2021/09/03 11:14:24;;;;;;;8.63;6.50;;;26.50;86.40;;;;;;5026709;28;20469;-47
2021/09/03 11:16:54;;;;;;;14.70;8.20;;;26.30;89.00;;;;;;5026989;28;20531;-48
2021/09/03 11:19:23;;;;;;;11.40;6.80;;;26.30;89.50;;;;;;5027426;28;20500;-52
2021/09/03 11:21:52;;;;;;;10.27;6.10;;;26.20;89.10;;;;;;5027500;28;20476;-51
2021/09/03 11:24:21;;;;;;;12.13;6.67;;;26.10;89.10;;;;;;5027732;28;20503;-50
2021/09/03 11:26:49;;;;;;;9.37;6.40;;;25.90;89.50;;;;;;5026879;28;20464;-50
2021/09/03 11:29:24;;;;;;;9.70;6.50;;;25.70;90.00;;;;;;5027159;28;20444;-48
2021/09/03 11:32:10;;;;;;;9.00;6.80;;;25.60;90.70;;;;;;5026619;28;20455;-48
2021/09/03 11:34:50;;;;;;;8.73;6.50;;;25.30;91.00;;;;;;5026220;28;20485;-49
2021/09/03 11:37:37;;;;;;;7.93;5.77;;;25.30;91.70;;;;;;5026941;28;20898;-49
2021/09/03 11:40:12;;;;;;;7.67;6.30;;;25.20;91.30;;;;;;5027141;28;20460;-50
2021/09/03 11:42:41;;;;;;;7.50;6.40;;;24.80;91.10;;;;;;5028595;28;20448;-50
2021/09/03 11:45:14;;;;;;;6.80;6.10;;;24.60;92.40;;;;;;5028425;28;20643;-53
2021/09/03 11:47:48;;;;;;;9.70;8.00;;;24.60;92.70;;;;;;5029589;28;20452;-48
2021/09/03 11:50:16;;;;;;;9.90;6.70;;;24.60;92.70;;;;;;5029508;28;20475;-49
2021/09/03 11:52:44;;;;;;;7.70;6.40;;;24.50;92.40;;;;;;5028462;28;20441;-48
2021/09/03 11:55:15;;;;;;;13.17;6.63;;;24.40;92.40;;;;;;5028890;28;20440;-48
2021/09/03 11:57:57;;;;;;;8.50;6.30;;;24.20;93.30;;;;;;5028616;28;20440;-49
2021/09/03 12:00:27;;;;;;;8.33;5.53;;;24.20;94.10;;;;;;5028849;28;20496;-50
2021/09/03 12:02:55;;;;;;;7.60;6.23;;;24.20;94.50;;;;;;5028783;28;20441;-51
2021/09/03 12:05:23;;;;;;;8.10;5.93;;;24.40;94.20;;;;;;5028882;28;20445;-49
2021/09/03 12:08:04;;;;;;;7.63;6.20;;;24.50;94.40;;;;;;5029049;28;20491;-50
2021/09/03 12:10:52;;;;;;;7.10;6.30;;;24.60;95.00;;;;;;5028798;28;20456;-51
2021/09/03 12:13:22;;;;;;;9.93;6.13;;;24.70;94.60;;;;;;5028228;28;20584;-47
2021/09/03 12:16:00;;;;;;;7.70;5.77;;;24.70;94.60;;;;;;5026683;28;20457;-48
2021/09/03 12:18:29;;;;;;;11.37;5.50;;;24.50;94.60;;;;;;5027992;28;20457;-51
2021/09/03 12:20:59;;;;;;;10.20;6.40;;;24.50;95.20;;;;;;5028703;28;20448;-50
2021/09/03 12:23:32;;;;;;;8.73;5.70;;;24.40;95.20;;;;;;5028719;28;20437;-52
2021/09/03 12:26:06;;;;;;;7.03;5.90;;;24.40;95.40;;;;;;5029054;28;20981;-50
2021/09/03 12:28:34;;;;;;;8.83;6.93;;;24.40;95.00;;;;;;5028822;28;20441;-45
2021/09/03 12:31:08;;;;;;;9.93;6.67;;;24.50;95.10;;;;;;5028007;28;20444;-51
2021/09/03 12:33:35;;;;;;;6.80;5.30;;;24.40;95.30;;;;;;5029157;28;20515;-50
2021/09/03 12:36:08;;;;;;;7.93;5.57;;;24.40;94.40;;;;;;5029058;28;20448;-48
2021/09/03 12:38:42;;;;;;;9.30;5.40;;;24.40;93.50;;;;;;5027621;28;20471;-49